createdAt,value
2017-12-22T00:00:56.012Z,7.50
2017-12-22T00:03:24.237Z,7.50
2017-12-22T00:05:52.478Z,7.50
2017-12-22T00:08:20.694Z,7.40
2017-12-22T00:10:49.685Z,7.30
2017-12-22T00:13:18.897Z,7.30
2017-12-22T00:15:48.790Z,7.30
2017-12-22T00:18:17.794Z,7.30
2017-12-22T00:20:46.018Z,7.30
2017-12-22T00:23:14.245Z,7.30
2017-12-22T00:25:43.230Z,7.20
2017-12-22T00:28:11.464Z,7.20
2017-12-22T00:30:39.685Z,7.30
2017-12-22T00:33:07.906Z,7.30
2017-12-22T00:35:36.114Z,7.40
2017-12-22T00:38:05.109Z,7.40
2017-12-22T00:40:34.098Z,7.30
2017-12-22T00:43:02.409Z,7.30
2017-12-22T00:45:31.380Z,7.30
2017-12-22T00:47:59.590Z,7.20
2017-12-22T00:50:27.828Z,7.30
2017-12-22T00:52:56.039Z,7.30
2017-12-22T00:55:24.276Z,7.30
2017-12-22T00:57:52.657Z,7.30
2017-12-22T01:00:20.879Z,7.30
2017-12-22T01:02:49.083Z,7.30
2017-12-22T01:05:17.315Z,7.30
2017-12-22T01:07:45.517Z,7.30
2017-12-22T01:10:13.727Z,7.30
2017-12-22T01:12:41.922Z,7.40
2017-12-22T01:15:10.894Z,7.40
2017-12-22T01:17:45.825Z,7.40
2017-12-22T01:20:14.822Z,7.40
2017-12-22T01:22:43.081Z,7.40
2017-12-22T01:25:11.281Z,7.40
2017-12-22T01:27:40.262Z,7.50
2017-12-22T01:30:09.249Z,7.50
2017-12-22T01:32:37.469Z,7.40
2017-12-22T01:35:05.690Z,7.50
2017-12-22T01:37:33.912Z,7.40
2017-12-22T01:40:02.131Z,7.40
2017-12-22T01:42:31.131Z,7.40
2017-12-22T01:44:59.341Z,7.40
2017-12-22T01:47:27.588Z,7.30
2017-12-22T01:49:55.827Z,7.30
2017-12-22T01:52:24.063Z,7.30
2017-12-22T01:54:52.291Z,7.40
2017-12-22T01:57:20.490Z,7.40
2017-12-22T01:59:49.791Z,7.40
2017-12-22T02:02:17.982Z,7.40
2017-12-22T02:04:46.201Z,7.40
2017-12-22T02:07:14.423Z,7.40
2017-12-22T02:09:43.429Z,7.40
2017-12-22T02:12:11.656Z,7.30
2017-12-22T02:14:39.855Z,7.40
2017-12-22T02:17:08.846Z,7.40
2017-12-22T02:19:37.826Z,7.40
2017-12-22T02:22:06.839Z,7.30
2017-12-22T02:24:35.822Z,7.30
2017-12-22T02:27:04.807Z,7.30
2017-12-22T02:29:33.062Z,7.30
2017-12-22T02:32:01.281Z,7.30
2017-12-22T02:34:29.741Z,7.30
2017-12-22T02:36:58.730Z,7.20
2017-12-22T02:39:27.719Z,7.20
2017-12-22T02:41:56.730Z,7.20
2017-12-22T02:44:25.717Z,7.10
2017-12-22T02:46:54.694Z,7.10
2017-12-22T02:49:23.195Z,7.10
2017-12-22T02:51:52.175Z,7.20
2017-12-22T02:54:21.167Z,7.20
2017-12-22T02:56:50.158Z,7.20
2017-12-22T02:59:19.146Z,7.20
2017-12-22T03:01:48.163Z,7.20
2017-12-22T03:04:16.398Z,7.20
2017-12-22T03:06:44.662Z,7.10
2017-12-22T03:09:12.886Z,7.10
2017-12-22T03:11:41.115Z,7.00
2017-12-22T03:14:09.345Z,6.90
2017-12-22T03:16:37.581Z,6.80
2017-12-22T03:19:06.586Z,6.80
2017-12-22T03:21:35.570Z,6.70
2017-12-22T03:24:03.795Z,6.70
2017-12-22T03:26:32.049Z,6.70
2017-12-22T03:29:00.310Z,6.70
2017-12-22T03:31:28.570Z,6.60
2017-12-22T03:33:56.783Z,6.60
2017-12-22T03:36:25.010Z,6.60
2017-12-22T03:38:53.228Z,6.60
2017-12-22T03:41:21.474Z,6.60
2017-12-22T03:43:50.473Z,6.70
2017-12-22T03:46:19.489Z,6.80
2017-12-22T03:48:47.731Z,6.70
2017-12-22T03:51:16.742Z,6.90
2017-12-22T03:53:45.723Z,6.90
2017-12-22T03:56:14.714Z,6.90
2017-12-22T03:58:43.716Z,7.00
2017-12-22T04:01:12.714Z,7.00
2017-12-22T04:03:40.958Z,7.00
2017-12-22T04:06:09.981Z,7.20
2017-12-22T04:08:38.210Z,7.20
2017-12-22T04:11:06.721Z,7.30
2017-12-22T04:13:35.564Z,7.30
2017-12-22T04:16:04.130Z,7.40
2017-12-22T04:18:33.383Z,7.50
2017-12-22T04:21:02.414Z,7.60
2017-12-22T04:23:30.657Z,7.60
2017-12-22T04:25:58.861Z,7.60
2017-12-22T04:28:27.096Z,7.50
2017-12-22T04:30:55.302Z,7.50
2017-12-22T04:33:23.554Z,7.50
2017-12-22T04:35:52.562Z,7.50
2017-12-22T04:38:20.821Z,7.50
2017-12-22T04:40:49.819Z,7.60
2017-12-22T04:43:18.817Z,7.60
2017-12-22T04:45:47.821Z,7.60
2017-12-22T04:48:16.102Z,7.50
2017-12-22T04:50:44.262Z,7.60
2017-12-22T04:53:12.536Z,7.50
2017-12-22T04:55:40.781Z,7.40
2017-12-22T04:58:09.012Z,7.40
2017-12-22T05:00:37.254Z,7.40
2017-12-22T05:03:06.830Z,7.20
2017-12-22T05:05:35.179Z,7.20
2017-12-22T05:08:03.416Z,7.20
2017-12-22T05:10:31.670Z,7.20
2017-12-22T05:13:00.672Z,7.10
2017-12-22T05:15:30.495Z,7.10
2017-12-22T05:17:58.725Z,7.00
2017-12-22T05:20:26.958Z,7.10
2017-12-22T05:22:55.242Z,7.10
2017-12-22T05:25:23.479Z,7.10
2017-12-22T05:27:52.494Z,7.10
2017-12-22T05:30:20.754Z,7.00
2017-12-22T05:32:49.782Z,7.00
2017-12-22T05:35:18.430Z,7.00
2017-12-22T05:37:46.672Z,7.00
2017-12-22T05:40:15.018Z,7.00
2017-12-22T05:42:43.228Z,6.90
2017-12-22T05:45:12.187Z,6.80
2017-12-22T05:47:40.443Z,6.80
2017-12-22T05:50:08.675Z,6.70
2017-12-22T05:52:36.914Z,6.70
2017-12-22T05:55:05.137Z,6.60
2017-12-22T05:57:33.344Z,6.60
2017-12-22T06:00:01.590Z,6.60
2017-12-22T06:02:30.622Z,6.70
2017-12-22T06:04:59.388Z,6.60
2017-12-22T06:07:28.350Z,6.70
2017-12-22T06:09:56.585Z,6.70
2017-12-22T06:12:25.127Z,6.70
2017-12-22T06:14:54.134Z,6.50
2017-12-22T06:17:22.378Z,6.50
2017-12-22T06:19:50.614Z,6.50
2017-12-22T06:22:18.867Z,6.50
2017-12-22T06:24:47.114Z,6.50
2017-12-22T06:27:16.114Z,6.50
2017-12-22T06:29:45.115Z,6.50
2017-12-22T06:32:14.105Z,6.50
2017-12-22T06:34:42.359Z,6.50
2017-12-22T06:37:10.586Z,6.50
2017-12-22T06:39:39.130Z,6.50
2017-12-22T06:42:08.125Z,6.60
2017-12-22T06:44:37.224Z,6.60
2017-12-22T06:47:06.276Z,6.70
2017-12-22T06:49:34.505Z,6.60
2017-12-22T06:52:02.750Z,6.70
2017-12-22T06:54:31.738Z,6.60
2017-12-22T06:57:00.013Z,6.60
2017-12-22T06:59:28.507Z,6.50
2017-12-22T07:01:56.733Z,6.50
2017-12-22T07:04:25.087Z,6.50
2017-12-22T07:06:53.301Z,6.50
2017-12-22T07:09:21.536Z,6.50
2017-12-22T07:11:49.754Z,6.60
2017-12-22T07:14:18.135Z,6.60
2017-12-22T07:16:46.354Z,6.70
2017-12-22T07:19:14.591Z,6.70
2017-12-22T07:21:42.850Z,6.70
2017-12-22T07:24:11.106Z,6.70
2017-12-22T07:26:39.330Z,6.70
2017-12-22T07:29:07.920Z,6.80
2017-12-22T07:31:36.906Z,6.90
2017-12-22T07:34:05.899Z,6.80
2017-12-22T07:36:34.890Z,6.80
2017-12-22T07:39:03.886Z,6.90
2017-12-22T07:41:32.877Z,6.90
2017-12-22T07:44:01.855Z,7.00
2017-12-22T07:46:30.305Z,6.90
2017-12-22T07:48:58.551Z,7.00
2017-12-22T07:51:26.856Z,7.00
2017-12-22T07:53:55.090Z,7.10
2017-12-22T07:56:23.411Z,7.10
2017-12-22T07:58:51.941Z,7.10
2017-12-22T08:01:21.362Z,7.00
2017-12-22T08:03:49.629Z,7.00
2017-12-22T08:06:18.094Z,7.10
2017-12-22T08:08:46.439Z,7.00
2017-12-22T08:11:14.674Z,7.00
2017-12-22T08:13:42.931Z,7.00
2017-12-22T08:16:11.934Z,7.10
2017-12-22T08:18:40.182Z,7.10
2017-12-22T08:21:09.174Z,7.10
2017-12-22T08:23:37.751Z,7.00
2017-12-22T08:26:05.965Z,7.10
2017-12-22T08:28:34.246Z,7.10
2017-12-22T08:31:02.474Z,7.10
2017-12-22T08:33:30.982Z,7.20
2017-12-22T08:35:59.967Z,7.20
2017-12-22T08:38:28.231Z,7.10
2017-12-22T08:40:57.234Z,7.10
2017-12-22T08:43:26.222Z,7.10
2017-12-22T08:45:54.466Z,7.10
2017-12-22T08:48:22.690Z,7.10
2017-12-22T08:50:50.926Z,7.10
2017-12-22T08:53:19.143Z,7.00
2017-12-22T08:55:47.434Z,7.00
2017-12-22T08:58:15.670Z,7.00
2017-12-22T09:00:44.660Z,7.10
2017-12-22T09:03:13.662Z,7.10
2017-12-22T09:05:41.923Z,7.10
2017-12-22T09:08:10.162Z,7.20
2017-12-22T09:10:38.381Z,7.20
2017-12-22T09:13:07.378Z,7.20
2017-12-22T09:15:36.375Z,7.20
2017-12-22T09:18:04.617Z,7.20
2017-12-22T09:20:33.629Z,7.20
2017-12-22T09:23:02.658Z,7.20
2017-12-22T09:25:30.884Z,7.20
2017-12-22T09:27:59.923Z,7.00
2017-12-22T09:30:28.139Z,6.90
2017-12-22T09:32:56.346Z,6.90
2017-12-22T09:35:25.332Z,6.90
2017-12-22T09:37:54.325Z,6.90
2017-12-22T09:40:22.547Z,6.80
2017-12-22T09:42:50.788Z,6.80
2017-12-22T09:45:20.674Z,6.80
2017-12-22T09:47:48.878Z,6.80
2017-12-22T09:50:17.129Z,6.80
2017-12-22T09:52:46.142Z,6.90
2017-12-22T09:55:14.452Z,6.90
2017-12-22T09:57:43.396Z,7.00
2017-12-22T10:00:12.614Z,7.00
2017-12-22T10:02:40.926Z,7.00
2017-12-22T10:05:09.450Z,7.00
2017-12-22T10:07:37.686Z,7.00
2017-12-22T10:10:05.946Z,7.10
2017-12-22T10:12:34.199Z,7.20
2017-12-22T10:15:02.419Z,7.20
2017-12-22T10:17:30.641Z,7.30
2017-12-22T10:19:58.878Z,7.30
2017-12-22T10:22:27.108Z,7.20
2017-12-22T10:24:55.339Z,7.20
2017-12-22T10:27:24.464Z,7.10
2017-12-22T10:29:52.702Z,7.10
2017-12-22T10:32:20.933Z,7.10
2017-12-22T10:34:49.172Z,7.10
2017-12-22T10:37:18.194Z,6.90
2017-12-22T10:39:46.426Z,6.90
2017-12-22T10:42:14.649Z,6.80
2017-12-22T10:44:42.903Z,6.80
2017-12-22T10:47:11.120Z,6.80
2017-12-22T10:49:39.362Z,6.80
2017-12-22T10:52:07.590Z,6.80
2017-12-22T10:54:35.826Z,6.80
2017-12-22T10:57:04.089Z,6.80
2017-12-22T10:59:32.314Z,6.70
2017-12-22T11:02:00.585Z,6.60
2017-12-22T11:04:28.822Z,6.60
2017-12-22T11:06:57.046Z,6.60
2017-12-22T11:09:25.320Z,6.50
2017-12-22T11:11:53.590Z,6.50
2017-12-22T11:14:22.070Z,6.40
2017-12-22T11:16:50.346Z,6.30
2017-12-22T11:19:18.589Z,6.40
2017-12-22T11:21:46.795Z,6.40
2017-12-22T11:24:15.021Z,6.30
2017-12-22T11:26:43.359Z,6.30
2017-12-22T11:29:11.626Z,6.30
2017-12-22T11:31:39.847Z,6.30
2017-12-22T11:34:08.078Z,6.20
2017-12-22T11:36:36.768Z,6.20
2017-12-22T11:39:04.999Z,6.20
2017-12-22T11:41:33.229Z,6.10
2017-12-22T11:44:02.290Z,6.10
2017-12-22T11:46:31.034Z,6.10
2017-12-22T11:49:00.028Z,6.10
2017-12-22T11:51:28.256Z,6.10
2017-12-22T11:53:56.678Z,6.10
2017-12-22T11:56:24.924Z,6.10
2017-12-22T11:58:53.947Z,6.20
2017-12-22T12:01:22.267Z,6.10
2017-12-22T12:03:50.450Z,6.20
2017-12-22T12:06:18.674Z,6.20
2017-12-22T12:08:46.902Z,6.20
2017-12-22T12:11:15.911Z,6.20
2017-12-22T12:13:44.898Z,6.20
2017-12-22T12:16:13.910Z,6.20
2017-12-22T12:18:42.154Z,6.20
2017-12-22T12:21:10.650Z,6.30
2017-12-22T12:23:39.638Z,6.30
2017-12-22T12:26:09.686Z,6.30
2017-12-22T12:28:37.900Z,6.20
2017-12-22T12:31:06.185Z,6.30
2017-12-22T12:33:34.392Z,6.30
2017-12-22T12:36:03.374Z,6.30
2017-12-22T12:38:32.376Z,6.30
2017-12-22T12:41:01.391Z,6.40
2017-12-22T12:43:30.361Z,6.40
2017-12-22T12:45:58.673Z,6.40
2017-12-22T12:48:27.214Z,6.40
2017-12-22T12:50:55.537Z,6.40
2017-12-22T12:53:23.771Z,6.50
2017-12-22T12:55:52.035Z,6.50
2017-12-22T12:58:20.269Z,6.60
2017-12-22T13:00:48.486Z,6.60
2017-12-22T13:03:16.965Z,6.50
2017-12-22T13:05:45.958Z,6.50
2017-12-22T13:08:14.936Z,6.40
2017-12-22T13:10:43.942Z,6.50
2017-12-22T13:13:12.157Z,6.40
2017-12-22T13:15:40.434Z,6.50
2017-12-22T13:18:08.663Z,6.50
2017-12-22T13:20:37.661Z,6.60
2017-12-22T13:23:06.652Z,6.50
2017-12-22T13:25:35.230Z,6.50
2017-12-22T13:28:03.468Z,6.60
2017-12-22T13:30:32.448Z,6.70
2017-12-22T13:33:01.433Z,6.70
2017-12-22T13:35:29.650Z,6.60
2017-12-22T13:37:57.881Z,6.70
2017-12-22T13:40:26.111Z,6.70
2017-12-22T13:42:54.339Z,6.60
2017-12-22T13:45:22.546Z,6.60
2017-12-22T13:47:51.580Z,6.60
2017-12-22T13:50:19.762Z,6.60
2017-12-22T13:52:48.022Z,6.60
2017-12-22T13:55:16.998Z,6.70
2017-12-22T13:57:46.006Z,6.70
2017-12-22T14:00:14.240Z,6.70
2017-12-22T14:02:42.468Z,6.70
2017-12-22T14:05:10.717Z,6.80
2017-12-22T14:07:39.710Z,6.80
2017-12-22T14:10:08.710Z,6.80
2017-12-22T14:12:36.978Z,6.70
2017-12-22T14:15:05.993Z,6.80
2017-12-22T14:17:34.197Z,6.70
2017-12-22T14:20:02.446Z,6.70
2017-12-22T14:22:30.670Z,6.60
2017-12-22T14:24:58.889Z,6.50
2017-12-22T14:27:27.143Z,6.50
2017-12-22T14:29:56.123Z,6.50
2017-12-22T14:32:25.434Z,6.50
2017-12-22T14:34:54.434Z,6.50
2017-12-22T14:37:22.677Z,6.40
2017-12-22T14:39:50.908Z,6.40
2017-12-22T14:42:19.154Z,6.50
2017-12-22T14:44:48.158Z,6.40
2017-12-22T14:47:16.411Z,6.40
2017-12-22T14:49:45.394Z,6.40
2017-12-22T14:52:13.635Z,6.40
2017-12-22T14:54:41.898Z,6.30
2017-12-22T14:57:10.137Z,6.30
2017-12-22T14:59:39.972Z,6.30
2017-12-22T15:02:08.181Z,6.30
2017-12-22T15:04:36.417Z,6.30
2017-12-22T15:07:04.662Z,6.40
2017-12-22T15:09:33.675Z,6.40
2017-12-22T15:12:01.928Z,6.30
2017-12-22T15:14:31.005Z,6.40
2017-12-22T15:16:59.248Z,6.30
2017-12-22T15:21:59.914Z,6.40
2017-12-22T15:24:28.201Z,6.40
2017-12-22T15:26:56.497Z,6.30
2017-12-22T15:29:24.676Z,6.30
2017-12-22T15:31:53.672Z,6.20
2017-12-22T15:34:21.940Z,6.10
2017-12-22T15:36:50.154Z,6.20
2017-12-22T15:39:18.399Z,6.10
2017-12-22T15:41:46.631Z,6.10
2017-12-22T15:44:14.869Z,6.10
2017-12-22T15:46:43.955Z,6.10
2017-12-22T15:49:12.178Z,6.00
2017-12-22T15:51:40.458Z,6.10
2017-12-22T15:54:08.689Z,6.00
2017-12-22T15:56:36.922Z,6.00
2017-12-22T15:59:05.957Z,6.10
2017-12-22T16:01:34.594Z,6.00
2017-12-22T16:04:02.832Z,6.10
2017-12-22T16:06:31.142Z,6.00
2017-12-22T16:08:59.428Z,6.00
2017-12-22T16:11:28.057Z,6.00
2017-12-22T16:13:56.902Z,6.00
2017-12-22T16:16:25.123Z,6.00
2017-12-22T16:18:53.389Z,6.00
2017-12-22T16:21:21.638Z,6.10
2017-12-22T16:23:49.903Z,6.00
2017-12-22T16:26:18.142Z,6.10
2017-12-22T16:28:46.380Z,6.10
2017-12-22T16:31:15.387Z,6.10
2017-12-22T16:33:43.634Z,6.10
2017-12-22T16:36:12.623Z,6.10
2017-12-22T16:38:41.645Z,6.10
2017-12-22T16:41:09.899Z,6.10
2017-12-22T16:43:38.130Z,6.20
2017-12-22T16:46:06.387Z,6.20
2017-12-22T16:48:34.627Z,6.20
2017-12-22T16:51:02.911Z,6.20
2017-12-22T16:53:31.155Z,6.20
2017-12-22T16:55:59.671Z,6.20
2017-12-22T16:58:28.654Z,6.30
2017-12-22T17:00:56.892Z,6.20
2017-12-22T17:03:25.115Z,6.30
2017-12-22T17:05:53.495Z,6.30
2017-12-22T17:08:21.755Z,6.30
2017-12-22T17:10:50.754Z,6.40
2017-12-22T17:13:18.986Z,6.40
2017-12-22T17:15:47.998Z,6.40
2017-12-22T17:18:16.214Z,6.40
2017-12-22T17:20:44.425Z,6.40
2017-12-22T17:23:12.649Z,6.50
2017-12-22T17:25:40.887Z,6.40
2017-12-22T17:28:09.488Z,6.40
2017-12-22T17:30:38.076Z,6.30
2017-12-22T17:33:06.316Z,6.30
2017-12-22T17:35:34.553Z,6.30
2017-12-22T17:38:02.804Z,6.40
2017-12-22T17:40:31.047Z,6.40
2017-12-22T17:42:59.290Z,6.40
2017-12-22T17:45:27.503Z,6.40
2017-12-22T17:47:55.727Z,6.40
2017-12-22T17:50:25.601Z,6.30
2017-12-22T17:52:53.839Z,6.30
2017-12-22T17:55:22.126Z,6.40
2017-12-22T17:57:50.367Z,6.40
2017-12-22T18:00:18.587Z,6.40
2017-12-22T18:02:46.823Z,6.40
2017-12-22T18:05:15.050Z,6.40
2017-12-22T18:07:44.045Z,6.40
2017-12-22T18:10:12.328Z,6.30
2017-12-22T18:12:40.579Z,6.40
2017-12-22T18:15:08.839Z,6.30
2017-12-22T18:17:37.074Z,6.40
2017-12-22T18:20:05.291Z,6.40
2017-12-22T18:22:33.554Z,6.40
2017-12-22T18:25:01.785Z,6.40
2017-12-22T18:27:30.815Z,6.30
2017-12-22T18:29:59.114Z,6.30
2017-12-22T18:32:27.361Z,6.40
2017-12-22T18:34:55.620Z,6.40
2017-12-22T18:37:24.589Z,6.50
2017-12-22T18:39:52.859Z,6.40
2017-12-22T18:42:21.857Z,6.50
2017-12-22T18:44:50.830Z,6.50
2017-12-22T18:47:20.247Z,6.50
2017-12-22T18:49:49.254Z,6.50
2017-12-22T18:52:17.698Z,6.40
2017-12-22T18:54:45.957Z,6.50
2017-12-22T18:57:14.986Z,6.60
2017-12-22T18:59:43.277Z,6.50
2017-12-22T19:02:14.202Z,6.60
2017-12-22T19:04:42.509Z,6.60
2017-12-22T19:07:11.483Z,6.60
2017-12-22T19:09:40.044Z,6.60
2017-12-22T19:12:08.619Z,6.60
2017-12-22T19:14:37.737Z,6.60
2017-12-22T19:17:06.140Z,6.60
2017-12-22T19:19:34.431Z,6.60
2017-12-22T19:22:02.789Z,6.60
2017-12-22T19:24:31.259Z,6.60
2017-12-22T19:26:59.707Z,6.60
2017-12-22T19:29:28.183Z,6.60
2017-12-22T19:31:56.681Z,6.60
2017-12-22T19:34:24.959Z,6.60
2017-12-22T19:36:54.178Z,6.60
2017-12-22T19:39:22.426Z,6.50
2017-12-22T19:41:51.430Z,6.60
2017-12-22T19:44:20.436Z,6.60
2017-12-22T19:46:48.678Z,6.50
2017-12-22T19:49:16.902Z,6.60
2017-12-22T19:51:45.143Z,6.60
2017-12-22T19:54:13.403Z,6.60
2017-12-22T19:56:41.686Z,6.60
2017-12-22T19:59:09.942Z,6.60
2017-12-22T20:01:39.026Z,6.60
2017-12-22T20:04:07.270Z,6.60
2017-12-22T20:06:35.579Z,6.60
2017-12-22T20:09:03.878Z,6.70
2017-12-22T20:11:32.134Z,6.70
2017-12-22T20:14:00.400Z,6.70
2017-12-22T20:16:28.748Z,6.70
2017-12-22T20:18:57.645Z,6.80
2017-12-22T20:21:26.107Z,6.70
2017-12-22T20:23:54.368Z,6.70
2017-12-22T20:26:22.664Z,6.70
2017-12-22T20:28:50.945Z,6.70
2017-12-22T20:31:19.238Z,6.70
2017-12-22T20:33:47.463Z,6.70
2017-12-22T20:36:15.754Z,6.70
2017-12-22T20:38:44.777Z,6.80
2017-12-22T20:41:13.046Z,6.70
2017-12-22T20:43:42.110Z,6.80
2017-12-22T20:46:10.492Z,6.80
2017-12-22T20:48:38.762Z,6.80
2017-12-22T20:51:07.067Z,6.80
2017-12-22T20:53:35.348Z,6.80
2017-12-22T20:56:03.678Z,6.70
2017-12-22T20:58:32.942Z,6.60
2017-12-22T21:01:01.211Z,6.60
2017-12-22T21:03:29.511Z,6.50
2017-12-22T21:05:57.887Z,6.50
2017-12-22T21:08:27.309Z,6.50
2017-12-22T21:10:56.475Z,6.50
2017-12-22T21:13:25.676Z,6.50
2017-12-22T21:15:54.411Z,6.50
2017-12-22T21:18:22.907Z,6.50
2017-12-22T21:20:51.856Z,6.40
2017-12-22T21:23:20.902Z,6.50
2017-12-22T21:25:49.267Z,6.50
2017-12-22T21:28:17.601Z,6.50
2017-12-22T21:30:45.948Z,6.50
2017-12-22T21:33:14.341Z,6.50
2017-12-22T21:35:42.988Z,6.50
2017-12-22T21:38:11.446Z,6.50
2017-12-22T21:40:40.012Z,6.50
2017-12-22T21:43:08.746Z,6.50
2017-12-22T21:45:37.376Z,6.50
2017-12-22T21:48:05.917Z,6.40
2017-12-22T21:50:34.295Z,6.40
2017-12-22T21:53:02.542Z,6.40
2017-12-22T21:55:31.002Z,6.40
2017-12-22T21:57:59.265Z,6.40
2017-12-22T22:00:27.582Z,6.30
2017-12-22T22:02:56.004Z,6.30
2017-12-22T22:05:24.331Z,6.30
2017-12-22T22:07:52.561Z,6.30
2017-12-22T22:10:20.780Z,6.20
2017-12-22T22:12:49.031Z,6.20
2017-12-22T22:15:17.240Z,6.20
2017-12-22T22:17:45.469Z,6.10
2017-12-22T22:20:13.687Z,6.10
2017-12-22T22:22:41.933Z,6.10
2017-12-22T22:25:10.923Z,6.00
2017-12-22T22:27:39.947Z,5.90
2017-12-22T22:30:08.176Z,5.90
2017-12-22T22:32:36.397Z,5.90
2017-12-22T22:35:04.621Z,5.80
2017-12-22T22:37:33.630Z,5.80
2017-12-22T22:40:02.636Z,5.80
2017-12-22T22:42:31.629Z,5.80
2017-12-22T22:44:59.869Z,5.80
2017-12-22T22:47:28.092Z,5.80
2017-12-22T22:49:56.323Z,5.70
2017-12-22T22:52:24.823Z,5.70
2017-12-22T22:54:53.845Z,5.80
2017-12-22T22:57:22.087Z,5.70
2017-12-22T22:59:51.085Z,5.80
2017-12-22T23:02:20.077Z,5.80
2017-12-22T23:04:49.090Z,5.80
2017-12-22T23:07:17.312Z,5.80
2017-12-22T23:09:45.560Z,5.70
2017-12-22T23:12:13.792Z,5.70
2017-12-22T23:14:42.025Z,5.60
2017-12-22T23:17:10.270Z,5.60
2017-12-22T23:19:38.496Z,5.70
2017-12-22T23:22:06.731Z,5.70
2017-12-22T23:24:35.158Z,5.70
2017-12-22T23:27:03.652Z,5.60
2017-12-22T23:29:31.905Z,5.60
2017-12-22T23:32:00.162Z,5.60
2017-12-22T23:34:28.390Z,5.60
2017-12-22T23:36:56.616Z,5.60
2017-12-22T23:39:24.879Z,5.60
2017-12-22T23:41:53.092Z,5.60
2017-12-22T23:44:22.108Z,5.70
2017-12-22T23:46:50.391Z,5.70
2017-12-22T23:49:19.386Z,5.80
2017-12-22T23:51:47.623Z,5.70
2017-12-22T23:54:15.866Z,5.80
2017-12-22T23:56:44.082Z,5.90
2017-12-22T23:59:12.322Z,5.90
